Accueil
METAR-TAF:

METAR-TAF

Aéroports :

Le Touquet, France

Aéroport du Touquet-Côte d'Opale

latitude: 50-30-53N, longitude: 001-37-39E, altitude: 6 m

Observation

Le bulletin a été fait il y a 22 minutes, à 08:30 UTC
Vent 6 kt de ouest
Température 18°C
Humidité 83%
Pression 1018 hPa
Visibilité 10 km ou plus
Nuages épars à une hauteur de 1600 ft

METAR: LFAT 240830Z AUTO 26006KT 9999 SCT016 18/15 Q1018 NOSIG

Heure: 10:52 (08:52 UTC)

Prévision

Le bulletin a été fait il y a 40 minutes, à 08:12 UTC
Prévision valable du 24 à 08 UTC au 24 à 15 UTC
Vent 5 kt de ouest/nord-ouest
Visibilité 10 km ou plus
Nuages fragmentés à une hauteur de 1300 ft
Evoluant progressivement
du 24 à 08 UTC au 24 à 10 UTC
Nuages fragmentés à une hauteur de 2000 ft

TAF: LFAT 240812Z 2408/2415 30005KT 9999 BKN013 BECMG 2408/2410 BKN020

Observations et prévisions météorologiques de plus de 4000 aéroports (messages METAR et TAF).

Les stations disponibles sont représentées par des disques jaunes et rouges sur la carte.

Passer la souris dessus pour voir le nom de la station.

Cliquer dessus pour voir les observations et prévisions météorologiques.

Pour changer de carte: cliquez sur les boutons verts avec une croix noire pour zoomer, sur le bouton vert avec un tiret pour effectuer un zoom arrière, ou sur les flèches vertes pour les cartes adjacentes.


METAR-TAF: